Positano — IJZJ — position and weather

sailwx.info

Track history (hours):
 
Tides and Currents Weather Stations Pressure Air Temp Water Temp Dewpoint Dewpoint Depression Visibility Wind Speed Wind Dir Waves Ship Positions

Positano

Last reported at 2016-Jul-26 13:33 UTC. Time now 2016-Jul-29 10:11 UTC.
Position N 40°33' E 014°15'.

Length 12 m.

MMSI: 247208300.

Date/timePositionNaut miles runAvg speedWind from/ knotsBaromVisibWave heightAir tempDewpointWater temp
2016-Jul-26 13:33N 40°33' E 014°15'5 0.1
2016-Jul-24 16:13N 40°36' E 014°19'4 5.7
2016-Jul-24 15:31N 40°33' E 014°15'1 0.9
2016-Jul-24 14:33N 40°33' E 014°15'0 0.1
2016-Jul-24 13:34N 40°33' E 014°15'0 0.0
2016-Jul-24 12:33N 40°33' E 014°15'0 0.0
2016-Jul-24 11:34N 40°33' E 014°15'0 0.0
2016-Jul-24 10:33N 40°33' E 014°15'1 0.9
2016-Jul-24 09:33N 40°34' E 014°15'1 1.3
2016-Jul-24 08:34N 40°32' E 014°14'6 5.6
2016-Jul-24 07:33N 40°36' E 014°20'0 0.0
2016-Jul-23 17:26N 40°37' E 014°20'0 0.0
2016-Jul-23 16:32N 40°37' E 014°20'7 3.2
2016-Jul-23 14:22N 40°37' E 014°29'0 0.0
2016-Jul-23 13:17N 40°37' E 014°29'8 1.4
2016-Jul-23 07:29N 40°35' E 014°19'2 1.8
2016-Jul-23 06:33N 40°37' E 014°20'1 0.0
2016-Jul-22 17:33N 40°36' E 014°20'5 4.9
2016-Jul-22 16:33N 40°32' E 014°15'1 1.2
2016-Jul-22 15:33N 40°32' E 014°14'0 0.0
2016-Jul-22 14:33N 40°32' E 014°14'0 0.0
2016-Jul-22 13:32N 40°32' E 014°14'0 0.0
2016-Jul-22 11:27N 40°32' E 014°14'4 1.4
2016-Jul-22 08:25N 40°35' E 014°18'2 0.1
2016-Jul-21 16:33N 40°37' E 014°20'5 5.0
2016-Jul-21 15:29N 40°33' E 014°14'1 0.7
2016-Jul-21 14:33N 40°33' E 014°15'0 0.0
2016-Jul-21 13:33N 40°33' E 014°15'0 0.0
2016-Jul-21 12:23N 40°33' E 014°15'0 0.0
2016-Jul-21 11:33N 40°33' E 014°15'0 0.0
2016-Jul-21 10:33N 40°33' E 014°15'1 0.6
2016-Jul-21 09:32N 40°33' E 014°14'1 1.0
2016-Jul-21 08:33N 40°32' E 014°14'6 6.0
2016-Jul-21 07:33N 40°37' E 014°20'0 0.0
2016-Jul-20 16:32N 40°37' E 014°20'4 0.5
2016-Jul-20 08:05N 40°35' E 014°25'4 7.6
2016-Jul-20 07:30N 40°35' E 014°19'2 0.1
2016-Jul-19 16:29N 40°37' E 014°20'5 5.7
2016-Jul-19 15:33N 40°33' E 014°14'1 0.6
2016-Jul-19 14:25N 40°33' E 014°15'0 0.0
2016-Jul-19 13:11N 40°33' E 014°15'0 0.0
2016-Jul-19 12:30N 40°33' E 014°15'0 0.0
2016-Jul-19 11:30N 40°33' E 014°15'1 0.4
2016-Jul-19 09:30N 40°33' E 014°14'5 2.4
2016-Jul-19 07:33N 40°36' E 014°19'1 0.0
2016-Jul-17 16:33N 40°37' E 014°20'4 3.4
2016-Jul-17 15:25N 40°34' E 014°17'3 3.0
2016-Jul-17 14:20N 40°34' E 014°13'2 2.3
2016-Jul-17 13:33N 40°34' E 014°15'1 0.1
2016-Jul-17 08:06N 40°34' E 014°16'2 2.9
2016-Jul-17 07:20N 40°35' E 014°18'2 0.1
2016-Jul-16 16:33N 40°37' E 014°20'5 5.0
2016-Jul-16 15:31N 40°33' E 014°15'  
Track history (hours):
 
Tides and Currents Weather Stations Pressure Air Temp Water Temp Dewpoint Dewpoint Depression Visibility Wind Speed Wind Dir Waves Ship Positions

Positano

Last reported at 2016-Jul-26 13:33 UTC. Time now 2016-Jul-29 10:11 UTC.
Position N 40°33' E 014°15'.

Length 12 m.

MMSI: 247208300.

Date/timePositionNaut miles runAvg speedWind from/ knotsBaromVisibWave heightAir tempDewpointWater temp
2016-Jul-26 13:33N 40°33' E 014°15'5 0.1
2016-Jul-24 16:13N 40°36' E 014°19'4 5.7
2016-Jul-24 15:31N 40°33' E 014°15'1 0.9
2016-Jul-24 14:33N 40°33' E 014°15'0 0.1
2016-Jul-24 13:34N 40°33' E 014°15'0 0.0
2016-Jul-24 12:33N 40°33' E 014°15'0 0.0
2016-Jul-24 11:34N 40°33' E 014°15'0 0.0
2016-Jul-24 10:33N 40°33' E 014°15'1 0.9
2016-Jul-24 09:33N 40°34' E 014°15'1 1.3
2016-Jul-24 08:34N 40°32' E 014°14'6 5.6
2016-Jul-24 07:33N 40°36' E 014°20'0 0.0
2016-Jul-23 17:26N 40°37' E 014°20'0 0.0
2016-Jul-23 16:32N 40°37' E 014°20'7 3.2
2016-Jul-23 14:22N 40°37' E 014°29'0 0.0
2016-Jul-23 13:17N 40°37' E 014°29'8 1.4
2016-Jul-23 07:29N 40°35' E 014°19'2 1.8
2016-Jul-23 06:33N 40°37' E 014°20'1 0.0
2016-Jul-22 17:33N 40°36' E 014°20'5 4.9
2016-Jul-22 16:33N 40°32' E 014°15'1 1.2
2016-Jul-22 15:33N 40°32' E 014°14'0 0.0
2016-Jul-22 14:33N 40°32' E 014°14'0 0.0
2016-Jul-22 13:32N 40°32' E 014°14'0 0.0
2016-Jul-22 11:27N 40°32' E 014°14'4 1.4
2016-Jul-22 08:25N 40°35' E 014°18'2 0.1
2016-Jul-21 16:33N 40°37' E 014°20'5 5.0
2016-Jul-21 15:29N 40°33' E 014°14'1 0.7
2016-Jul-21 14:33N 40°33' E 014°15'0 0.0
2016-Jul-21 13:33N 40°33' E 014°15'0 0.0
2016-Jul-21 12:23N 40°33' E 014°15'0 0.0
2016-Jul-21 11:33N 40°33' E 014°15'0 0.0
2016-Jul-21 10:33N 40°33' E 014°15'1 0.6
2016-Jul-21 09:32N 40°33' E 014°14'1 1.0
2016-Jul-21 08:33N 40°32' E 014°14'6 6.0
2016-Jul-21 07:33N 40°37' E 014°20'0 0.0
2016-Jul-20 16:32N 40°37' E 014°20'4 0.5
2016-Jul-20 08:05N 40°35' E 014°25'4 7.6
2016-Jul-20 07:30N 40°35' E 014°19'2 0.1
2016-Jul-19 16:29N 40°37' E 014°20'5 5.7
2016-Jul-19 15:33N 40°33' E 014°14'1 0.6
2016-Jul-19 14:25N 40°33' E 014°15'0 0.0
2016-Jul-19 13:11N 40°33' E 014°15'0 0.0
2016-Jul-19 12:30N 40°33' E 014°15'0 0.0
2016-Jul-19 11:30N 40°33' E 014°15'1 0.4
2016-Jul-19 09:30N 40°33' E 014°14'5 2.4
2016-Jul-19 07:33N 40°36' E 014°19'1 0.0
2016-Jul-17 16:33N 40°37' E 014°20'4 3.4
2016-Jul-17 15:25N 40°34' E 014°17'3 3.0
2016-Jul-17 14:20N 40°34' E 014°13'2 2.3
2016-Jul-17 13:33N 40°34' E 014°15'1 0.1
2016-Jul-17 08:06N 40°34' E 014°16'2 2.9
2016-Jul-17 07:20N 40°35' E 014°18'2 0.1
2016-Jul-16 16:33N 40°37' E 014°20'5 5.0
2016-Jul-16 15:31N 40°33' E 014°15'  

Dump ship's entire track history